PWSweather.com
Personal Weather Stations
Station Observations
BREAKEY01
Lévis, Breakeyville, QC G6z 7G7

LévisBreakeyville, QC G6z 7G7

Lat: 46.681, Lon: -71.224

Elevation: 328

Station Type: Davis Vantage Pro2

http://www.meteobreakey.com

Latest ConditionsUpdated 11:37:03 PM EST Saturday, Jan 20, 2018
Currently Today's Max Today's Min Today's Average
Temperature 21.6°F-5.8°C 37.6°F3.1°C 21.6°F-5.8°C 32.1°F0.1°C
Dew Point 14.9°F-9.5°C 32.4°F0.2°C 14.7°F-9.6°C 26.6°F-3.0°C
Winds 4.0 mph WNW6.4 kmh WNW 17.0 mph WSW27.4 kmh WSW - 11.0 mph 17.7 kmh
Wind Gusts 4.9 mph7.9 kmh 27.1 mph43.6 kmh - -
Humidity 75% 93% 66% 80%
Pressure 29.89 in1012.2 mb 29.89 in1012.2 mb 29.38 in994.9 mb -
Precipitation - 0.04 in1.0 mm - -
Hour Temp Dew Point Humidity Winds Wind Gusts Pressure Precip Precip Rate Daily Precip Total
11:37 PM 21.6°F-5.8°C 14.9°F-9.5°C 75% 4.0 mph WNW6.4 kmh WNW 4.9 mph7.9 kmh 29.89 in1012.2 mb - 0.00 in0.0 mm 0.04 in1.0 mm
11:32 PM 21.7°F-5.7°C 15.1°F-9.4°C 75% 4.9 mph W7.9 kmh W 2.0 mph3.2 kmh 29.89 in1012.2 mb - 0.00 in0.0 mm 0.04 in1.0 mm
11:27 PM 21.7°F-5.7°C 14.7°F-9.6°C 74% 4.9 mph NW7.9 kmh NW 2.0 mph3.2 kmh 29.89 in1012.2 mb - 0.00 in0.0 mm 0.04 in1.0 mm
11:22 PM 21.9°F-5.6°C 14.9°F-9.5°C 74% 6.0 mph NW9.7 kmh NW 4.9 mph7.9 kmh 29.89 in1012.2 mb - 0.00 in0.0 mm 0.04 in1.0 mm
11:17 PM 22.1°F-5.5°C 15.1°F-9.4°C 74% 8.1 mph NW13.0 kmh NW 2.9 mph4.7 kmh 29.89 in1012.2 mb - 0.00 in0.0 mm 0.04 in1.0 mm
11:12 PM 22.3°F-5.4°C 15.3°F-9.3°C 74% 8.1 mph NW13.0 kmh NW 8.9 mph14.3 kmh 29.89 in1012.2 mb - 0.00 in0.0 mm 0.04 in1.0 mm
11:07 PM 22.5°F-5.3°C 15.4°F-9.2°C 74% 8.9 mph WNW14.3 kmh WNW 4.0 mph6.4 kmh 29.88 in1011.9 mb - 0.00 in0.0 mm 0.04 in1.0 mm
11:02 PM 22.5°F-5.3°C 15.1°F-9.4°C 73% 8.1 mph WNW13.0 kmh WNW 14.1 mph22.7 kmh 29.88 in1011.9 mb - 0.00 in0.0 mm 0.04 in1.0 mm
10:57 PM 22.6°F-5.2°C 15.6°F-9.1°C 74% 6.9 mph W11.1 kmh W 8.9 mph14.3 kmh 29.89 in1012.2 mb - 0.00 in0.0 mm 0.04 in1.0 mm
10:52 PM 22.8°F-5.1°C 15.8°F-9.0°C 74% 8.1 mph WNW13.0 kmh WNW 4.9 mph7.9 kmh 29.88 in1011.9 mb - 0.00 in0.0 mm 0.04 in1.0 mm
10:47 PM 23.0°F-5.0°C 17.8°F-7.9°C 80% 8.1 mph NW13.0 kmh NW 4.9 mph7.9 kmh 29.88 in1011.9 mb - 0.00 in0.0 mm 0.04 in1.0 mm
10:42 PM 23.2°F-4.9°C 16.2°F-8.8°C 74% 8.1 mph NW13.0 kmh NW 2.9 mph4.7 kmh 29.87 in1011.5 mb - 0.00 in0.0 mm 0.04 in1.0 mm
10:37 PM 23.4°F-4.8°C 16.0°F-8.9°C 73% 8.9 mph NW14.3 kmh NW 6.0 mph9.7 kmh 29.87 in1011.5 mb - 0.00 in0.0 mm 0.04 in1.0 mm
10:32 PM 23.5°F-4.7°C 16.2°F-8.8°C 73% 8.9 mph W14.3 kmh W 6.9 mph11.1 kmh 29.87 in1011.5 mb - 0.00 in0.0 mm 0.04 in1.0 mm
10:27 PM 23.7°F-4.6°C 16.0°F-8.9°C 72% 8.9 mph WNW14.3 kmh WNW 13.0 mph20.9 kmh 29.87 in1011.5 mb - 0.00 in0.0 mm 0.04 in1.0 mm
10:22 PM 23.9°F-4.5°C 16.2°F-8.8°C 72% 8.9 mph NW14.3 kmh NW 8.1 mph13.0 kmh 29.88 in1011.9 mb - 0.00 in0.0 mm 0.04 in1.0 mm
10:17 PM 24.1°F-4.4°C 16.3°F-8.7°C 72% 8.9 mph W14.3 kmh W 8.9 mph14.3 kmh 29.88 in1011.9 mb - 0.00 in0.0 mm 0.04 in1.0 mm
10:12 PM 24.3°F-4.3°C 16.5°F-8.6°C 72% 8.9 mph WNW14.3 kmh WNW 12.1 mph19.5 kmh 29.88 in1011.9 mb - 0.00 in0.0 mm 0.04 in1.0 mm
10:07 PM 24.4°F-4.2°C 16.7°F-8.5°C 72% 8.9 mph NW14.3 kmh NW 10.1 mph16.3 kmh 29.88 in1011.9 mb - 0.00 in0.0 mm 0.04 in1.0 mm
10:02 PM 24.4°F-4.2°C 16.3°F-8.7°C 71% 8.1 mph W13.0 kmh W 12.1 mph19.5 kmh 29.87 in1011.5 mb - 0.00 in0.0 mm 0.04 in1.0 mm
09:57 PM 24.6°F-4.1°C 16.5°F-8.6°C 71% 8.9 mph NW14.3 kmh NW 4.0 mph6.4 kmh 29.87 in1011.5 mb - 0.00 in0.0 mm 0.04 in1.0 mm
09:52 PM 25.0°F-3.9°C 16.5°F-8.6°C 70% 8.9 mph N14.3 kmh N 13.0 mph20.9 kmh 29.87 in1011.5 mb - 0.00 in0.0 mm 0.04 in1.0 mm
09:47 PM 25.2°F-3.8°C 16.7°F-8.5°C 70% 8.9 mph NNW14.3 kmh NNW 8.1 mph13.0 kmh 29.87 in1011.5 mb - 0.00 in0.0 mm 0.04 in1.0 mm
09:42 PM 25.3°F-3.7°C 17.2°F-8.2°C 71% 6.9 mph WNW11.1 kmh WNW 6.9 mph11.1 kmh 29.86 in1011.2 mb - 0.00 in0.0 mm 0.04 in1.0 mm
09:37 PM 25.5°F-3.6°C 17.4°F-8.1°C 71% 6.9 mph WNW11.1 kmh WNW 10.1 mph16.3 kmh 29.86 in1011.2 mb - 0.00 in0.0 mm 0.04 in1.0 mm
09:32 PM 25.7°F-3.5°C 17.6°F-8.0°C 71% 8.9 mph W14.3 kmh W 2.0 mph3.2 kmh 29.86 in1011.2 mb - 0.00 in0.0 mm 0.04 in1.0 mm
09:27 PM 25.9°F-3.4°C 17.8°F-7.9°C 71% 8.1 mph NW13.0 kmh NW 11.0 mph17.7 kmh 29.85 in1010.8 mb - 0.00 in0.0 mm 0.04 in1.0 mm
09:22 PM 26.2°F-3.2°C 18.1°F-7.7°C 71% 6.9 mph NNW11.1 kmh NNW 11.0 mph17.7 kmh 29.85 in1010.8 mb - 0.00 in0.0 mm 0.04 in1.0 mm
09:17 PM 26.4°F-3.1°C 18.3°F-7.6°C 71% 6.9 mph NNW11.1 kmh NNW 4.0 mph6.4 kmh 29.85 in1010.8 mb - 0.00 in0.0 mm 0.04 in1.0 mm
09:12 PM 26.6°F-3.0°C 18.5°F-7.5°C 71% 8.9 mph NW14.3 kmh NW 2.9 mph4.7 kmh 29.85 in1010.8 mb - 0.00 in0.0 mm 0.04 in1.0 mm
09:07 PM 26.8°F-2.9°C 18.3°F-7.6°C 70% 6.9 mph NW11.1 kmh NW 6.0 mph9.7 kmh 29.84 in1010.5 mb - 0.00 in0.0 mm 0.04 in1.0 mm
09:02 PM 27.0°F-2.8°C 18.5°F-7.5°C 70% 6.9 mph NW11.1 kmh NW 6.9 mph11.1 kmh 29.83 in1010.2 mb - 0.00 in0.0 mm 0.04 in1.0 mm
08:57 PM 27.1°F-2.7°C 18.7°F-7.4°C 70% 8.9 mph WNW14.3 kmh WNW 4.0 mph6.4 kmh 29.83 in1010.2 mb - 0.00 in0.0 mm 0.04 in1.0 mm
08:52 PM 27.1°F-2.7°C 18.7°F-7.4°C 70% 8.1 mph NW13.0 kmh NW 10.1 mph16.3 kmh 29.83 in1010.2 mb - 0.00 in0.0 mm 0.04 in1.0 mm
08:47 PM 27.3°F-2.6°C 18.5°F-7.5°C 69% 8.1 mph NW13.0 kmh NW 8.1 mph13.0 kmh 29.82 in1009.8 mb - 0.00 in0.0 mm 0.04 in1.0 mm
08:42 PM 27.7°F-2.4°C 18.9°F-7.3°C 69% 8.9 mph WSW14.3 kmh WSW 6.9 mph11.1 kmh 29.81 in1009.5 mb - 0.00 in0.0 mm 0.04 in1.0 mm
08:37 PM 27.9°F-2.3°C 19.0°F-7.2°C 69% 10.1 mph WSW16.3 kmh WSW 8.1 mph13.0 kmh 29.81 in1009.5 mb - 0.00 in0.0 mm 0.04 in1.0 mm
08:32 PM 28.0°F-2.2°C 18.9°F-7.3°C 68% 10.1 mph WNW16.3 kmh WNW 8.1 mph13.0 kmh 29.81 in1009.5 mb - 0.00 in0.0 mm 0.04 in1.0 mm
08:27 PM 28.2°F-2.1°C 19.0°F-7.2°C 68% 10.1 mph WNW16.3 kmh WNW 8.1 mph13.0 kmh 29.81 in1009.5 mb - 0.00 in0.0 mm 0.04 in1.0 mm
08:22 PM 28.2°F-2.1°C 18.7°F-7.4°C 67% 10.1 mph W16.3 kmh W 11.0 mph17.7 kmh 29.81 in1009.5 mb - 0.00 in0.0 mm 0.04 in1.0 mm
08:17 PM 28.6°F-1.9°C 19.0°F-7.2°C 67% 11.0 mph NNW17.7 kmh NNW 11.0 mph17.7 kmh 29.81 in1009.5 mb - 0.00 in0.0 mm 0.04 in1.0 mm
08:12 PM 28.8°F-1.8°C 19.2°F-7.1°C 67% 11.0 mph WNW17.7 kmh WNW 14.1 mph22.7 kmh 29.80 in1009.1 mb - 0.00 in0.0 mm 0.04 in1.0 mm
08:07 PM 28.9°F-1.7°C 19.0°F-7.2°C 66% 11.0 mph W17.7 kmh W 15.0 mph24.1 kmh 29.80 in1009.1 mb - 0.00 in0.0 mm 0.04 in1.0 mm
08:02 PM 29.3°F-1.5°C 19.4°F-7.0°C 66% 10.1 mph NW16.3 kmh NW 13.0 mph20.9 kmh 29.79 in1008.8 mb - 0.00 in0.0 mm 0.04 in1.0 mm
07:57 PM 29.7°F-1.3°C 20.5°F-6.4°C 68% 10.1 mph W16.3 kmh W 8.9 mph14.3 kmh 29.79 in1008.8 mb - 0.00 in0.0 mm 0.04 in1.0 mm
07:52 PM 29.8°F-1.2°C 20.3°F-6.5°C 67% 11.0 mph WNW17.7 kmh WNW 12.1 mph19.5 kmh 29.78 in1008.5 mb - 0.00 in0.0 mm 0.04 in1.0 mm
07:47 PM 30.0°F-1.1°C 20.5°F-6.4°C 67% 13.0 mph WNW20.9 kmh WNW 16.1 mph25.9 kmh 29.78 in1008.5 mb - 0.00 in0.0 mm 0.04 in1.0 mm
07:42 PM 30.2°F-1.0°C 20.3°F-6.5°C 66% 14.1 mph NW22.7 kmh NW 11.0 mph17.7 kmh 29.78 in1008.5 mb - 0.00 in0.0 mm 0.04 in1.0 mm
07:37 PM 30.4°F-0.9°C 20.3°F-6.5°C 66% 14.1 mph NW22.7 kmh NW 11.0 mph17.7 kmh 29.78 in1008.5 mb - 0.00 in0.0 mm 0.04 in1.0 mm
07:32 PM 30.6°F-0.8°C 20.5°F-6.4°C 66% 13.0 mph WNW20.9 kmh WNW 17.9 mph28.8 kmh 29.77 in1008.1 mb - 0.00 in0.0 mm 0.04 in1.0 mm
07:27 PM 30.6°F-0.8°C 20.5°F-6.4°C 66% 13.0 mph W20.9 kmh W 19.9 mph32.0 kmh 29.77 in1008.1 mb - 0.00 in0.0 mm 0.04 in1.0 mm
07:22 PM 30.7°F-0.7°C 20.7°F-6.3°C 66% 12.1 mph W19.5 kmh W 6.9 mph11.1 kmh 29.77 in1008.1 mb - 0.00 in0.0 mm 0.04 in1.0 mm
07:17 PM 30.7°F-0.7°C 20.7°F-6.3°C 66% 11.0 mph NW17.7 kmh NW 17.0 mph27.4 kmh 29.76 in1007.8 mb - 0.00 in0.0 mm 0.04 in1.0 mm
07:12 PM 30.9°F-0.6°C 21.2°F-6.0°C 67% 11.0 mph N17.7 kmh N 6.0 mph9.7 kmh 29.75 in1007.5 mb - 0.00 in0.0 mm 0.04 in1.0 mm
07:07 PM 31.3°F-0.4°C 21.9°F-5.6°C 68% 11.0 mph NW17.7 kmh NW 12.1 mph19.5 kmh 29.75 in1007.5 mb - 0.00 in0.0 mm 0.04 in1.0 mm
07:02 PM 31.5°F-0.3°C 21.7°F-5.7°C 67% 12.1 mph NW19.5 kmh NW 10.1 mph16.3 kmh 29.74 in1007.1 mb - 0.00 in0.0 mm 0.04 in1.0 mm
06:57 PM 31.6°F-0.2°C 22.3°F-5.4°C 68% 14.1 mph WNW22.7 kmh WNW 14.1 mph22.7 kmh 29.73 in1006.8 mb - 0.00 in0.0 mm 0.04 in1.0 mm
06:52 PM 32.0°F0.0°C 22.3°F-5.4°C 67% 15.0 mph W24.1 kmh W 15.0 mph24.1 kmh 29.73 in1006.8 mb - 0.00 in0.0 mm 0.04 in1.0 mm
06:47 PM 32.4°F0.2°C 23.0°F-5.0°C 68% 14.1 mph WNW22.7 kmh WNW 16.1 mph25.9 kmh 29.73 in1006.8 mb - 0.00 in0.0 mm 0.04 in1.0 mm
06:42 PM 32.7°F0.4°C 23.4°F-4.8°C 68% 13.0 mph WNW20.9 kmh WNW 17.9 mph28.8 kmh 29.72 in1006.4 mb - 0.00 in0.0 mm 0.04 in1.0 mm
06:37 PM 32.9°F0.5°C 23.2°F-4.9°C 67% 14.1 mph W22.7 kmh W 13.0 mph20.9 kmh 29.72 in1006.4 mb - 0.00 in0.0 mm 0.04 in1.0 mm
06:32 PM 33.3°F0.7°C 23.5°F-4.7°C 67% 17.0 mph NW27.4 kmh NW 15.0 mph24.1 kmh 29.71 in1006.1 mb - 0.00 in0.0 mm 0.04 in1.0 mm
06:27 PM 33.4°F0.8°C 23.4°F-4.8°C 66% 16.1 mph WNW25.9 kmh WNW 23.0 mph37.0 kmh 29.70 in1005.8 mb - 0.00 in0.0 mm 0.04 in1.0 mm
06:22 PM 33.6°F0.9°C 23.9°F-4.5°C 67% 14.1 mph WNW22.7 kmh WNW 11.0 mph17.7 kmh 29.70 in1005.8 mb - 0.00 in0.0 mm 0.04 in1.0 mm
06:17 PM 33.8°F1.0°C 24.4°F-4.2°C 68% 14.1 mph WNW22.7 kmh WNW 12.1 mph19.5 kmh 29.69 in1005.4 mb - 0.00 in0.0 mm 0.04 in1.0 mm
06:12 PM 33.8°F1.0°C 24.8°F-4.0°C 69% 15.0 mph WNW24.1 kmh WNW 21.0 mph33.8 kmh 29.69 in1005.4 mb - 0.00 in0.0 mm 0.04 in1.0 mm
06:07 PM 34.2°F1.2°C 25.0°F-3.9°C 69% 15.0 mph WNW24.1 kmh WNW 8.1 mph13.0 kmh 29.68 in1005.1 mb - 0.00 in0.0 mm 0.04 in1.0 mm
06:02 PM 34.3°F1.3°C 26.2°F-3.2°C 72% 14.1 mph NW22.7 kmh NW 11.0 mph17.7 kmh 29.68 in1005.1 mb - 0.00 in0.0 mm 0.04 in1.0 mm
05:57 PM 34.7°F1.5°C 27.0°F-2.8°C 73% 13.0 mph WNW20.9 kmh WNW 10.1 mph16.3 kmh 29.67 in1004.7 mb - 0.00 in0.0 mm 0.04 in1.0 mm
05:52 PM 35.1°F1.7°C 28.6°F-1.9°C 77% 12.1 mph N19.5 kmh N 16.1 mph25.9 kmh 29.67 in1004.7 mb - 0.00 in0.0 mm 0.04 in1.0 mm
05:47 PM 35.2°F1.8°C 29.1°F-1.6°C 78% 11.0 mph NW17.7 kmh NW 11.0 mph17.7 kmh 29.67 in1004.7 mb - 0.00 in0.0 mm 0.04 in1.0 mm
05:42 PM 35.4°F1.9°C 28.9°F-1.7°C 77% 11.0 mph NW17.7 kmh NW 12.1 mph19.5 kmh 29.66 in1004.4 mb - 0.00 in0.0 mm 0.04 in1.0 mm
05:37 PM 35.6°F2.0°C 29.1°F-1.6°C 77% 11.0 mph NW17.7 kmh NW 15.0 mph24.1 kmh 29.65 in1004.1 mb - 0.00 in0.0 mm 0.04 in1.0 mm
05:32 PM 35.8°F2.1°C 29.3°F-1.5°C 77% 11.0 mph W17.7 kmh W 13.0 mph20.9 kmh 29.65 in1004.1 mb - 0.00 in0.0 mm 0.04 in1.0 mm
05:27 PM 36.1°F2.3°C 29.7°F-1.3°C 77% 12.1 mph NW19.5 kmh NW 13.0 mph20.9 kmh 29.64 in1003.7 mb - 0.00 in0.0 mm 0.04 in1.0 mm
05:22 PM 36.1°F2.3°C 29.7°F-1.3°C 77% 12.1 mph WNW19.5 kmh WNW 8.9 mph14.3 kmh 29.62 in1003.0 mb - 0.00 in0.0 mm 0.04 in1.0 mm
05:17 PM 36.3°F2.4°C 29.8°F-1.2°C 77% 11.0 mph WNW17.7 kmh WNW 8.9 mph14.3 kmh 29.62 in1003.0 mb - 0.00 in0.0 mm 0.04 in1.0 mm
05:12 PM 36.5°F2.5°C 29.7°F-1.3°C 76% 12.1 mph NW19.5 kmh NW 4.0 mph6.4 kmh 29.61 in1002.7 mb - 0.00 in0.0 mm 0.04 in1.0 mm
05:07 PM 36.7°F2.6°C 30.2°F-1.0°C 77% 13.0 mph WSW20.9 kmh WSW 11.0 mph17.7 kmh 29.61 in1002.7 mb - 0.00 in0.0 mm 0.04 in1.0 mm
05:02 PM 36.7°F2.6°C 30.2°F-1.0°C 77% 13.0 mph WNW20.9 kmh WNW 14.1 mph22.7 kmh 29.60 in1002.4 mb - 0.00 in0.0 mm 0.04 in1.0 mm
04:57 PM 36.5°F2.5°C 30.4°F-0.9°C 78% 12.1 mph NW19.5 kmh NW 12.1 mph19.5 kmh 29.60 in1002.4 mb - 0.00 in0.0 mm 0.04 in1.0 mm
04:52 PM 36.3°F2.4°C 30.7°F-0.7°C 80% 13.0 mph NW20.9 kmh NW 16.1 mph25.9 kmh 29.59 in1002.0 mb - 0.00 in0.0 mm 0.04 in1.0 mm
04:47 PM 36.3°F2.4°C 31.1°F-0.5°C 81% 14.1 mph W22.7 kmh W 8.1 mph13.0 kmh 29.58 in1001.7 mb - 0.00 in0.0 mm 0.04 in1.0 mm
04:42 PM 36.3°F2.4°C 31.1°F-0.5°C 81% 14.1 mph WNW22.7 kmh WNW 14.1 mph22.7 kmh 29.57 in1001.4 mb - 0.00 in0.0 mm 0.04 in1.0 mm
04:37 PM 36.5°F2.5°C 31.3°F-0.4°C 81% 16.1 mph WSW25.9 kmh WSW 10.1 mph16.3 kmh 29.57 in1001.4 mb - 0.00 in0.0 mm 0.04 in1.0 mm
04:32 PM 36.3°F2.4°C 31.1°F-0.5°C 81% 16.1 mph NW25.9 kmh NW 8.9 mph14.3 kmh 29.56 in1001.0 mb - 0.00 in0.0 mm 0.04 in1.0 mm
04:27 PM 36.1°F2.3°C 31.5°F-0.3°C 83% 16.1 mph WNW25.9 kmh WNW 10.1 mph16.3 kmh 29.56 in1001.0 mb - 0.00 in0.0 mm 0.04 in1.0 mm
04:22 PM 35.8°F2.1°C 31.5°F-0.3°C 84% 15.0 mph WNW24.1 kmh WNW 21.0 mph33.8 kmh 29.56 in1001.0 mb - 0.00 in0.0 mm 0.04 in1.0 mm
04:17 PM 35.8°F2.1°C 31.6°F-0.2°C 85% 15.0 mph WNW24.1 kmh WNW 16.1 mph25.9 kmh 29.56 in1001.0 mb - 0.00 in0.0 mm 0.04 in1.0 mm
04:12 PM 36.0°F2.2°C 32.2°F0.1°C 86% 13.0 mph NW20.9 kmh NW 11.0 mph17.7 kmh 29.55 in1000.7 mb - 0.00 in0.0 mm 0.04 in1.0 mm
04:07 PM 36.1°F2.3°C 32.0°F0.0°C 85% 11.0 mph WNW17.7 kmh WNW 8.9 mph14.3 kmh 29.55 in1000.7 mb - 0.00 in0.0 mm 0.04 in1.0 mm
04:02 PM 36.9°F2.7°C 32.2°F0.1°C 83% 11.0 mph NNW17.7 kmh NNW 10.1 mph16.3 kmh 29.55 in1000.7 mb - 0.00 in0.0 mm 0.04 in1.0 mm
03:57 PM 37.6°F3.1°C 32.4°F0.2°C 81% 12.1 mph N19.5 kmh N 10.1 mph16.3 kmh 29.54 in1000.3 mb - 0.00 in0.0 mm 0.04 in1.0 mm
03:52 PM 37.6°F3.1°C 32.4°F0.2°C 81% 12.1 mph W19.5 kmh W 10.1 mph16.3 kmh 29.52 in999.7 mb - 0.00 in0.0 mm 0.04 in1.0 mm
03:47 PM 37.4°F3.0°C 32.2°F0.1°C 81% 11.0 mph WSW17.7 kmh WSW 13.0 mph20.9 kmh 29.51 in999.3 mb - 0.00 in0.0 mm 0.04 in1.0 mm
03:42 PM 37.4°F3.0°C 32.2°F0.1°C 81% 12.1 mph WSW19.5 kmh WSW 8.1 mph13.0 kmh 29.51 in999.3 mb - 0.00 in0.0 mm 0.04 in1.0 mm
03:37 PM 37.2°F2.9°C 32.0°F0.0°C 81% 12.1 mph W19.5 kmh W 8.1 mph13.0 kmh 29.50 in999.0 mb - 0.00 in0.0 mm 0.04 in1.0 mm
03:32 PM 37.2°F2.9°C 32.2°F0.1°C 82% 12.1 mph WNW19.5 kmh WNW 12.1 mph19.5 kmh 29.50 in999.0 mb - 0.00 in0.0 mm 0.04 in1.0 mm
03:27 PM 37.2°F2.9°C 32.2°F0.1°C 82% 13.0 mph W20.9 kmh W 10.1 mph16.3 kmh 29.50 in999.0 mb - 0.00 in0.0 mm 0.04 in1.0 mm
03:22 PM 37.0°F2.8°C 32.0°F0.0°C 82% 13.0 mph SW20.9 kmh SW 8.1 mph13.0 kmh 29.50 in999.0 mb - 0.00 in0.0 mm 0.04 in1.0 mm
03:17 PM 37.0°F2.8°C 32.0°F0.0°C 82% 12.1 mph W19.5 kmh W 14.1 mph22.7 kmh 29.49 in998.6 mb - 0.00 in0.0 mm 0.04 in1.0 mm
03:12 PM 37.0°F2.8°C 32.0°F0.0°C 82% 12.1 mph WSW19.5 kmh WSW 8.9 mph14.3 kmh 29.49 in998.6 mb - 0.00 in0.0 mm 0.04 in1.0 mm
03:07 PM 36.9°F2.7°C 31.8°F-0.1°C 82% 12.1 mph SW19.5 kmh SW 10.1 mph16.3 kmh 29.49 in998.6 mb - 0.00 in0.0 mm 0.04 in1.0 mm
03:02 PM 36.9°F2.7°C 32.2°F0.1°C 83% 11.0 mph WSW17.7 kmh WSW 16.1 mph25.9 kmh 29.49 in998.6 mb - 0.00 in0.0 mm 0.04 in1.0 mm
02:57 PM 36.7°F2.6°C 32.0°F0.0°C 83% 10.1 mph WSW16.3 kmh WSW 8.9 mph14.3 kmh 29.48 in998.3 mb - 0.00 in0.0 mm 0.04 in1.0 mm
02:52 PM 36.7°F2.6°C 32.0°F0.0°C 83% 11.0 mph WSW17.7 kmh WSW 10.1 mph16.3 kmh 29.48 in998.3 mb - 0.00 in0.0 mm 0.04 in1.0 mm
02:47 PM 36.7°F2.6°C 32.0°F0.0°C 83% 13.0 mph SW20.9 kmh SW 13.0 mph20.9 kmh 29.47 in998.0 mb - 0.00 in0.0 mm 0.04 in1.0 mm
02:42 PM 36.5°F2.5°C 31.8°F-0.1°C 83% 13.0 mph WSW20.9 kmh WSW 14.1 mph22.7 kmh 29.47 in998.0 mb - 0.00 in0.0 mm 0.04 in1.0 mm
02:37 PM 36.3°F2.4°C 32.0°F0.0°C 84% 11.0 mph WSW17.7 kmh WSW 15.0 mph24.1 kmh 29.47 in998.0 mb - 0.00 in0.0 mm 0.04 in1.0 mm
02:32 PM 36.3°F2.4°C 32.0°F0.0°C 84% 12.1 mph WSW19.5 kmh WSW 10.1 mph16.3 kmh 29.47 in998.0 mb - 0.00 in0.0 mm 0.04 in1.0 mm
02:27 PM 36.1°F2.3°C 32.0°F0.0°C 85% 12.1 mph WSW19.5 kmh WSW 17.0 mph27.4 kmh 29.47 in998.0 mb - 0.00 in0.0 mm 0.04 in1.0 mm
02:22 PM 36.0°F2.2°C 31.8°F-0.1°C 85% 11.0 mph WSW17.7 kmh WSW 8.9 mph14.3 kmh 29.47 in998.0 mb - 0.00 in0.0 mm 0.04 in1.0 mm
02:17 PM 36.0°F2.2°C 32.2°F0.1°C 86% 12.1 mph WSW19.5 kmh WSW 8.9 mph14.3 kmh 29.47 in998.0 mb - 0.00 in0.0 mm 0.04 in1.0 mm
02:12 PM 35.8°F2.1°C 32.0°F0.0°C 86% 12.1 mph WSW19.5 kmh WSW 17.9 mph28.8 kmh 29.47 in998.0 mb - 0.00 in0.0 mm 0.04 in1.0 mm
02:07 PM 35.8°F2.1°C 32.0°F0.0°C 86% 11.0 mph SW17.7 kmh SW 8.9 mph14.3 kmh 29.47 in998.0 mb - 0.00 in0.0 mm 0.04 in1.0 mm
02:02 PM 35.8°F2.1°C 32.0°F0.0°C 86% 12.1 mph WSW19.5 kmh WSW 11.0 mph17.7 kmh 29.47 in998.0 mb - 0.00 in0.0 mm 0.04 in1.0 mm
01:57 PM 36.0°F2.2°C 32.2°F0.1°C 86% 13.0 mph WSW20.9 kmh WSW 13.0 mph20.9 kmh 29.47 in998.0 mb - 0.00 in0.0 mm 0.04 in1.0 mm
01:52 PM 36.0°F2.2°C 31.8°F-0.1°C 85% 13.0 mph WSW20.9 kmh WSW 15.0 mph24.1 kmh 29.47 in998.0 mb - 0.00 in0.0 mm 0.04 in1.0 mm
01:47 PM 36.1°F2.3°C 31.8°F-0.1°C 84% 13.0 mph WSW20.9 kmh WSW 17.9 mph28.8 kmh 29.47 in998.0 mb - 0.00 in0.0 mm 0.04 in1.0 mm
01:42 PM 36.1°F2.3°C 31.5°F-0.3°C 83% 13.0 mph WSW20.9 kmh WSW 8.9 mph14.3 kmh 29.46 in997.6 mb - 0.00 in0.0 mm 0.04 in1.0 mm
01:37 PM 36.1°F2.3°C 31.5°F-0.3°C 83% 12.1 mph WNW19.5 kmh WNW 17.9 mph28.8 kmh 29.46 in997.6 mb - 0.00 in0.0 mm 0.04 in1.0 mm
01:32 PM 36.1°F2.3°C 31.5°F-0.3°C 83% 12.1 mph SW19.5 kmh SW 10.1 mph16.3 kmh 29.46 in997.6 mb - 0.00 in0.0 mm 0.04 in1.0 mm
01:27 PM 36.1°F2.3°C 31.5°F-0.3°C 83% 14.1 mph WSW22.7 kmh WSW 11.0 mph17.7 kmh 29.45 in997.3 mb - 0.00 in0.0 mm 0.04 in1.0 mm
01:22 PM 36.1°F2.3°C 31.5°F-0.3°C 83% 15.0 mph WSW24.1 kmh WSW 13.0 mph20.9 kmh 29.46 in997.6 mb - 0.00 in0.0 mm 0.04 in1.0 mm
01:17 PM 36.3°F2.4°C 31.3°F-0.4°C 82% 14.1 mph SW22.7 kmh SW 19.0 mph30.6 kmh 29.46 in997.6 mb - 0.00 in0.0 mm 0.04 in1.0 mm
01:12 PM 36.3°F2.4°C 31.1°F-0.5°C 81% 15.0 mph WSW24.1 kmh WSW 16.1 mph25.9 kmh 29.46 in997.6 mb - 0.00 in0.0 mm 0.04 in1.0 mm
01:07 PM 36.5°F2.5°C 31.3°F-0.4°C 81% 15.0 mph WSW24.1 kmh WSW 14.1 mph22.7 kmh 29.45 in997.3 mb - 0.00 in0.0 mm 0.04 in1.0 mm
01:02 PM 36.5°F2.5°C 31.3°F-0.4°C 81% 14.1 mph SW22.7 kmh SW 16.1 mph25.9 kmh 29.44 in997.0 mb - 0.00 in0.0 mm 0.04 in1.0 mm
12:57 PM 36.3°F2.4°C 31.1°F-0.5°C 81% 15.0 mph WSW24.1 kmh WSW 25.9 mph41.7 kmh 29.44 in997.0 mb - 0.00 in0.0 mm 0.04 in1.0 mm
12:52 PM 36.5°F2.5°C 31.3°F-0.4°C 81% 16.1 mph SW25.9 kmh SW 12.1 mph19.5 kmh 29.44 in997.0 mb - 0.00 in0.0 mm 0.04 in1.0 mm
12:47 PM 36.5°F2.5°C 31.3°F-0.4°C 81% 15.0 mph W24.1 kmh W 16.1 mph25.9 kmh 29.43 in996.6 mb - 0.00 in0.0 mm 0.04 in1.0 mm
12:42 PM 36.5°F2.5°C 31.3°F-0.4°C 81% 15.0 mph SW24.1 kmh SW 16.1 mph25.9 kmh 29.43 in996.6 mb - 0.00 in0.0 mm 0.04 in1.0 mm
12:37 PM 36.5°F2.5°C 30.9°F-0.6°C 80% 15.0 mph SW24.1 kmh SW 12.1 mph19.5 kmh 29.43 in996.6 mb - 0.00 in0.0 mm 0.04 in1.0 mm
12:32 PM 36.3°F2.4°C 31.1°F-0.5°C 81% 13.0 mph SSW20.9 kmh SSW 11.0 mph17.7 kmh 29.43 in996.6 mb - 0.00 in0.0 mm 0.04 in1.0 mm
12:27 PM 36.3°F2.4°C 30.7°F-0.7°C 80% 11.0 mph WSW17.7 kmh WSW 13.0 mph20.9 kmh 29.44 in997.0 mb - 0.00 in0.0 mm 0.04 in1.0 mm
12:22 PM 36.3°F2.4°C 30.7°F-0.7°C 80% 12.1 mph WSW19.5 kmh WSW 6.9 mph11.1 kmh 29.44 in997.0 mb - 0.00 in0.0 mm 0.04 in1.0 mm
12:17 PM 36.3°F2.4°C 30.7°F-0.7°C 80% 14.1 mph WSW22.7 kmh WSW 12.1 mph19.5 kmh 29.44 in997.0 mb - 0.00 in0.0 mm 0.04 in1.0 mm
12:12 PM 36.3°F2.4°C 30.7°F-0.7°C 80% 13.0 mph W20.9 kmh W 17.0 mph27.4 kmh 29.44 in997.0 mb - 0.00 in0.0 mm 0.04 in1.0 mm
12:07 PM 36.3°F2.4°C 30.7°F-0.7°C 80% 13.0 mph WSW20.9 kmh WSW 15.0 mph24.1 kmh 29.44 in997.0 mb - 0.00 in0.0 mm 0.04 in1.0 mm
12:02 PM 36.1°F2.3°C 30.6°F-0.8°C 80% 13.0 mph WSW20.9 kmh WSW 17.0 mph27.4 kmh 29.44 in997.0 mb - 0.00 in0.0 mm 0.04 in1.0 mm
11:57 AM 36.3°F2.4°C 30.7°F-0.7°C 80% 14.1 mph WSW22.7 kmh WSW 13.0 mph20.9 kmh 29.44 in997.0 mb - 0.00 in0.0 mm 0.04 in1.0 mm
11:52 AM 36.1°F2.3°C 30.6°F-0.8°C 80% 14.1 mph SW22.7 kmh SW 16.1 mph25.9 kmh 29.44 in997.0 mb - 0.00 in0.0 mm 0.04 in1.0 mm
11:47 AM 36.1°F2.3°C 30.6°F-0.8°C 80% 14.1 mph SW22.7 kmh SW 21.0 mph33.8 kmh 29.44 in997.0 mb - 0.00 in0.0 mm 0.04 in1.0 mm
11:42 AM 36.1°F2.3°C 30.6°F-0.8°C 80% 12.1 mph WSW19.5 kmh WSW 10.1 mph16.3 kmh 29.44 in997.0 mb - 0.00 in0.0 mm 0.04 in1.0 mm
11:37 AM 36.1°F2.3°C 30.6°F-0.8°C 80% 14.1 mph WSW22.7 kmh WSW 21.0 mph33.8 kmh 29.44 in997.0 mb - 0.00 in0.0 mm 0.04 in1.0 mm
11:32 AM 36.3°F2.4°C 30.7°F-0.7°C 80% 15.0 mph W24.1 kmh W 10.1 mph16.3 kmh 29.44 in997.0 mb - 0.00 in0.0 mm 0.04 in1.0 mm
11:27 AM 36.3°F2.4°C 30.7°F-0.7°C 80% 14.1 mph WSW22.7 kmh WSW 21.9 mph35.2 kmh 29.44 in997.0 mb - 0.00 in0.0 mm 0.04 in1.0 mm
11:22 AM 36.3°F2.4°C 30.7°F-0.7°C 80% 16.1 mph WSW25.9 kmh WSW 12.1 mph19.5 kmh 29.43 in996.6 mb - 0.00 in0.0 mm 0.04 in1.0 mm
11:17 AM 36.1°F2.3°C 30.6°F-0.8°C 80% 17.0 mph WSW27.4 kmh WSW 12.1 mph19.5 kmh 29.43 in996.6 mb - 0.00 in0.0 mm 0.04 in1.0 mm
11:12 AM 36.1°F2.3°C 30.6°F-0.8°C 80% 17.0 mph WSW27.4 kmh WSW 21.9 mph35.2 kmh 29.43 in996.6 mb - 0.00 in0.0 mm 0.04 in1.0 mm
11:07 AM 36.1°F2.3°C 30.6°F-0.8°C 80% 16.1 mph WSW25.9 kmh WSW 19.9 mph32.0 kmh 29.43 in996.6 mb - 0.00 in0.0 mm 0.04 in1.0 mm
11:02 AM 36.0°F2.2°C 30.4°F-0.9°C 80% 16.1 mph WSW25.9 kmh WSW 21.9 mph35.2 kmh 29.43 in996.6 mb - 0.00 in0.0 mm 0.04 in1.0 mm
10:57 AM 36.0°F2.2°C 30.4°F-0.9°C 80% 15.0 mph SW24.1 kmh SW 27.1 mph43.6 kmh 29.43 in996.6 mb - 0.00 in0.0 mm 0.04 in1.0 mm
10:52 AM 36.0°F2.2°C 30.4°F-0.9°C 80% 14.1 mph SW22.7 kmh SW 14.1 mph22.7 kmh 29.43 in996.6 mb - 0.00 in0.0 mm 0.04 in1.0 mm
10:47 AM 36.0°F2.2°C 30.4°F-0.9°C 80% 16.1 mph SW25.9 kmh SW 14.1 mph22.7 kmh 29.43 in996.6 mb - 0.00 in0.0 mm 0.04 in1.0 mm
10:42 AM 36.0°F2.2°C 30.4°F-0.9°C 80% 17.0 mph WSW27.4 kmh WSW 15.0 mph24.1 kmh 29.43 in996.6 mb - 0.00 in0.0 mm 0.04 in1.0 mm
10:37 AM 36.0°F2.2°C 30.4°F-0.9°C 80% 16.1 mph WSW25.9 kmh WSW 19.9 mph32.0 kmh 29.43 in996.6 mb - 0.00 in0.0 mm 0.04 in1.0 mm
10:32 AM 36.0°F2.2°C 30.4°F-0.9°C 80% 17.0 mph SW27.4 kmh SW 23.9 mph38.5 kmh 29.43 in996.6 mb - 0.00 in0.0 mm 0.04 in1.0 mm
10:27 AM 36.0°F2.2°C 30.4°F-0.9°C 80% 16.1 mph SW25.9 kmh SW 16.1 mph25.9 kmh 29.43 in996.6 mb - 0.00 in0.0 mm 0.04 in1.0 mm
10:22 AM 35.8°F2.1°C 30.6°F-0.8°C 81% 16.1 mph WSW25.9 kmh WSW 16.1 mph25.9 kmh 29.42 in996.3 mb - 0.00 in0.0 mm 0.04 in1.0 mm
10:17 AM 35.6°F2.0°C 30.4°F-0.9°C 81% 17.0 mph WSW27.4 kmh WSW 17.0 mph27.4 kmh 29.42 in996.3 mb - 0.00 in0.0 mm 0.04 in1.0 mm
10:12 AM 35.4°F1.9°C 30.2°F-1.0°C 81% 16.1 mph W25.9 kmh W 17.9 mph28.8 kmh 29.43 in996.6 mb - 0.00 in0.0 mm 0.04 in1.0 mm
10:07 AM 35.4°F1.9°C 30.2°F-1.0°C 81% 16.1 mph 25.9 kmh 17.0 mph27.4 kmh 29.42 in996.3 mb - 0.00 in0.0 mm 0.04 in1.0 mm
10:02 AM 35.4°F1.9°C 30.2°F-1.0°C 81% 15.0 mph WSW24.1 kmh WSW 19.0 mph30.6 kmh 29.42 in996.3 mb - 0.00 in0.0 mm 0.04 in1.0 mm
09:57 AM 35.2°F1.8°C 30.0°F-1.1°C 81% 14.1 mph WSW22.7 kmh WSW 21.0 mph33.8 kmh 29.43 in996.6 mb - 0.00 in0.0 mm 0.04 in1.0 mm
09:52 AM 35.2°F1.8°C 30.0°F-1.1°C 81% 14.1 mph SW22.7 kmh SW 17.0 mph27.4 kmh 29.42 in996.3 mb - 0.00 in0.0 mm 0.04 in1.0 mm
09:47 AM 35.2°F1.8°C 30.0°F-1.1°C 81% 15.0 mph SW24.1 kmh SW 12.1 mph19.5 kmh 29.43 in996.6 mb - 0.00 in0.0 mm 0.04 in1.0 mm
09:42 AM 35.1°F1.7°C 29.8°F-1.2°C 81% 16.1 mph WSW25.9 kmh WSW 13.0 mph20.9 kmh 29.43 in996.6 mb - 0.00 in0.0 mm 0.04 in1.0 mm
09:37 AM 35.1°F1.7°C 29.8°F-1.2°C 81% 13.0 mph W20.9 kmh W 17.0 mph27.4 kmh 29.43 in996.6 mb - 0.00 in0.0 mm 0.04 in1.0 mm
09:32 AM 34.9°F1.6°C 30.0°F-1.1°C 82% 12.1 mph WSW19.5 kmh WSW 15.0 mph24.1 kmh 29.42 in996.3 mb - 0.00 in0.0 mm 0.04 in1.0 mm
09:27 AM 34.7°F1.5°C 29.8°F-1.2°C 82% 13.0 mph SW20.9 kmh SW 10.1 mph16.3 kmh 29.42 in996.3 mb - 0.00 in0.0 mm 0.04 in1.0 mm
09:22 AM 34.7°F1.5°C 29.8°F-1.2°C 82% 13.0 mph W20.9 kmh W 6.0 mph9.7 kmh 29.42 in996.3 mb - 0.00 in0.0 mm 0.04 in1.0 mm
09:17 AM 34.5°F1.4°C 29.7°F-1.3°C 82% 12.1 mph SW19.5 kmh SW 8.9 mph14.3 kmh 29.41 in995.9 mb - 0.00 in0.0 mm 0.04 in1.0 mm
09:12 AM 34.5°F1.4°C 29.3°F-1.5°C 81% 13.0 mph WSW20.9 kmh WSW 13.0 mph20.9 kmh 29.41 in995.9 mb - 0.00 in0.0 mm 0.04 in1.0 mm
09:07 AM 34.5°F1.4°C 29.3°F-1.5°C 81% 14.1 mph SW22.7 kmh SW 14.1 mph22.7 kmh 29.41 in995.9 mb - 0.00 in0.0 mm 0.04 in1.0 mm
09:02 AM 34.5°F1.4°C 29.3°F-1.5°C 81% 12.1 mph WSW19.5 kmh WSW 11.0 mph17.7 kmh 29.41 in995.9 mb - 0.00 in0.0 mm 0.04 in1.0 mm
08:57 AM 34.3°F1.3°C 29.1°F-1.6°C 81% 12.1 mph WSW19.5 kmh WSW 13.0 mph20.9 kmh 29.41 in995.9 mb - 0.00 in0.0 mm 0.04 in1.0 mm
08:52 AM 34.3°F1.3°C 29.1°F-1.6°C 81% 13.0 mph WSW20.9 kmh WSW 6.9 mph11.1 kmh 29.42 in996.3 mb - 0.00 in0.0 mm 0.04 in1.0 mm
08:47 AM 34.3°F1.3°C 29.1°F-1.6°C 81% 13.0 mph SW20.9 kmh SW 23.0 mph37.0 kmh 29.41 in995.9 mb - 0.00 in0.0 mm 0.04 in1.0 mm
08:42 AM 34.3°F1.3°C 29.1°F-1.6°C 81% 13.0 mph WSW20.9 kmh WSW 13.0 mph20.9 kmh 29.40 in995.6 mb - 0.00 in0.0 mm 0.04 in1.0 mm
08:37 AM 34.3°F1.3°C 29.1°F-1.6°C 81% 15.0 mph WSW24.1 kmh WSW 12.1 mph19.5 kmh 29.40 in995.6 mb - 0.00 in0.0 mm 0.04 in1.0 mm
08:32 AM 34.2°F1.2°C 28.9°F-1.7°C 81% 14.1 mph WSW22.7 kmh WSW 10.1 mph16.3 kmh 29.40 in995.6 mb - 0.00 in0.0 mm 0.04 in1.0 mm
08:27 AM 34.2°F1.2°C 28.9°F-1.7°C 81% 14.1 mph W22.7 kmh W 13.0 mph20.9 kmh 29.40 in995.6 mb - 0.00 in0.0 mm 0.04 in1.0 mm
08:22 AM 34.2°F1.2°C 28.9°F-1.7°C 81% 14.1 mph SW22.7 kmh SW 6.9 mph11.1 kmh 29.41 in995.9 mb - 0.00 in0.0 mm 0.04 in1.0 mm
08:17 AM 34.0°F1.1°C 28.8°F-1.8°C 81% 13.0 mph SW20.9 kmh SW 16.1 mph25.9 kmh 29.40 in995.6 mb - 0.00 in0.0 mm 0.04 in1.0 mm
08:12 AM 34.0°F1.1°C 28.8°F-1.8°C 81% 13.0 mph SW20.9 kmh SW 15.0 mph24.1 kmh 29.40 in995.6 mb - 0.00 in0.0 mm 0.04 in1.0 mm
08:07 AM 33.8°F1.0°C 28.6°F-1.9°C 81% 11.0 mph WSW17.7 kmh WSW 15.0 mph24.1 kmh 29.40 in995.6 mb - 0.00 in0.0 mm 0.04 in1.0 mm
08:02 AM 33.6°F0.9°C 28.4°F-2.0°C 81% 12.1 mph WSW19.5 kmh WSW 14.1 mph22.7 kmh 29.40 in995.6 mb - 0.00 in0.0 mm 0.04 in1.0 mm
07:57 AM 33.4°F0.8°C 28.2°F-2.1°C 81% 12.1 mph W19.5 kmh W 11.0 mph17.7 kmh 29.40 in995.6 mb - 0.00 in0.0 mm 0.04 in1.0 mm
07:52 AM 33.4°F0.8°C 28.2°F-2.1°C 81% 11.0 mph WSW17.7 kmh WSW 8.1 mph13.0 kmh 29.41 in995.9 mb - 0.00 in0.0 mm 0.04 in1.0 mm
07:47 AM 33.3°F0.7°C 28.0°F-2.2°C 81% 12.1 mph SSW19.5 kmh SSW 10.1 mph16.3 kmh 29.41 in995.9 mb - 0.00 in0.0 mm 0.04 in1.0 mm
07:42 AM 33.3°F0.7°C 28.0°F-2.2°C 81% 12.1 mph WSW19.5 kmh WSW 6.0 mph9.7 kmh 29.41 in995.9 mb - 0.00 in0.0 mm 0.04 in1.0 mm
07:37 AM 33.3°F0.7°C 28.0°F-2.2°C 81% 11.0 mph SW17.7 kmh SW 10.1 mph16.3 kmh 29.41 in995.9 mb - 0.00 in0.0 mm 0.04 in1.0 mm
07:32 AM 33.1°F0.6°C 27.9°F-2.3°C 81% 12.1 mph SW19.5 kmh SW 8.1 mph13.0 kmh 29.41 in995.9 mb - 0.00 in0.0 mm 0.04 in1.0 mm
07:27 AM 33.1°F0.6°C 27.9°F-2.3°C 81% 12.1 mph SW19.5 kmh SW 11.0 mph17.7 kmh 29.40 in995.6 mb - 0.00 in0.0 mm 0.04 in1.0 mm
07:22 AM 33.1°F0.6°C 27.9°F-2.3°C 81% 11.0 mph W17.7 kmh W 8.9 mph14.3 kmh 29.39 in995.3 mb - 0.00 in0.0 mm 0.04 in1.0 mm
07:17 AM 33.1°F0.6°C 27.9°F-2.3°C 81% 11.0 mph WSW17.7 kmh WSW 13.0 mph20.9 kmh 29.39 in995.3 mb - 0.00 in0.0 mm 0.04 in1.0 mm
07:12 AM 33.1°F0.6°C 27.5°F-2.5°C 80% 12.1 mph SSW19.5 kmh SSW 11.0 mph17.7 kmh 29.39 in995.3 mb - 0.00 in0.0 mm 0.04 in1.0 mm
07:07 AM 33.1°F0.6°C 27.5°F-2.5°C 80% 12.1 mph WSW19.5 kmh WSW 8.9 mph14.3 kmh 29.39 in995.3 mb - 0.00 in0.0 mm 0.04 in1.0 mm
07:02 AM 33.1°F0.6°C 27.5°F-2.5°C 80% 14.1 mph SW22.7 kmh SW 12.1 mph19.5 kmh 29.39 in995.3 mb - 0.00 in0.0 mm 0.04 in1.0 mm
06:57 AM 33.1°F0.6°C 27.5°F-2.5°C 80% 16.1 mph WSW25.9 kmh WSW 8.1 mph13.0 kmh 29.39 in995.3 mb - 0.00 in0.0 mm 0.04 in1.0 mm
06:52 AM 33.1°F0.6°C 27.5°F-2.5°C 80% 16.1 mph WSW25.9 kmh WSW 19.0 mph30.6 kmh 29.39 in995.3 mb - 0.00 in0.0 mm 0.04 in1.0 mm
06:47 AM 33.1°F0.6°C 27.5°F-2.5°C 80% 15.0 mph W24.1 kmh W 21.0 mph33.8 kmh 29.38 in994.9 mb - 0.00 in0.0 mm 0.04 in1.0 mm
06:42 AM 33.1°F0.6°C 27.5°F-2.5°C 80% 14.1 mph WSW22.7 kmh WSW 17.0 mph27.4 kmh 29.39 in995.3 mb - 0.00 in0.0 mm 0.04 in1.0 mm
06:37 AM 33.1°F0.6°C 27.5°F-2.5°C 80% 15.0 mph SW24.1 kmh SW 12.1 mph19.5 kmh 29.41 in995.9 mb - 0.00 in0.0 mm 0.04 in1.0 mm
06:32 AM 33.1°F0.6°C 27.5°F-2.5°C 80% 15.0 mph SW24.1 kmh SW 27.1 mph43.6 kmh 29.40 in995.6 mb - 0.00 in0.0 mm 0.04 in1.0 mm
06:27 AM 33.1°F0.6°C 27.5°F-2.5°C 80% 15.0 mph SW24.1 kmh SW 21.0 mph33.8 kmh 29.41 in995.9 mb - 0.00 in0.0 mm 0.04 in1.0 mm
06:22 AM 33.1°F0.6°C 27.5°F-2.5°C 80% 14.1 mph WSW22.7 kmh WSW 15.0 mph24.1 kmh 29.40 in995.6 mb - 0.00 in0.0 mm 0.04 in1.0 mm
06:17 AM 33.1°F0.6°C 27.9°F-2.3°C 81% 12.1 mph SW19.5 kmh SW 12.1 mph19.5 kmh 29.41 in995.9 mb - 0.00 in0.0 mm 0.04 in1.0 mm
06:12 AM 32.9°F0.5°C 27.7°F-2.4°C 81% 12.1 mph SW19.5 kmh SW 17.9 mph28.8 kmh 29.41 in995.9 mb - 0.00 in0.0 mm 0.04 in1.0 mm
06:07 AM 32.7°F0.4°C 27.5°F-2.5°C 81% 12.1 mph WSW19.5 kmh WSW 10.1 mph16.3 kmh 29.41 in995.9 mb - 0.00 in0.0 mm 0.04 in1.0 mm
06:02 AM 32.7°F0.4°C 27.9°F-2.3°C 82% 12.1 mph SW19.5 kmh SW 12.1 mph19.5 kmh 29.40 in995.6 mb - 0.00 in0.0 mm 0.04 in1.0 mm
05:57 AM 32.5°F0.3°C 28.0°F-2.2°C 83% 12.1 mph WSW19.5 kmh WSW 15.0 mph24.1 kmh 29.41 in995.9 mb - 0.00 in0.0 mm 0.04 in1.0 mm
05:52 AM 32.5°F0.3°C 28.0°F-2.2°C 83% 12.1 mph WSW19.5 kmh WSW 15.0 mph24.1 kmh 29.40 in995.6 mb - 0.00 in0.0 mm 0.04 in1.0 mm
05:47 AM 32.4°F0.2°C 27.9°F-2.3°C 83% 10.1 mph SW16.3 kmh SW 4.9 mph7.9 kmh 29.40 in995.6 mb - 0.00 in0.0 mm 0.04 in1.0 mm
05:42 AM 32.2°F0.1°C 27.9°F-2.3°C 84% 8.9 mph SW14.3 kmh SW 11.0 mph17.7 kmh 29.40 in995.6 mb - 0.00 in0.0 mm 0.04 in1.0 mm
05:37 AM 32.0°F0.0°C 28.0°F-2.2°C 85% 10.1 mph WSW16.3 kmh WSW 11.0 mph17.7 kmh 29.40 in995.6 mb - 0.00 in0.0 mm 0.04 in1.0 mm
05:32 AM 31.8°F-0.1°C 27.9°F-2.3°C 85% 11.0 mph WSW17.7 kmh WSW 12.1 mph19.5 kmh 29.40 in995.6 mb - 0.00 in0.0 mm 0.04 in1.0 mm
05:27 AM 31.6°F-0.2°C 27.9°F-2.3°C 86% 11.0 mph SW17.7 kmh SW 8.9 mph14.3 kmh 29.40 in995.6 mb - 0.00 in0.0 mm 0.04 in1.0 mm
05:22 AM 31.5°F-0.3°C 28.0°F-2.2°C 87% 8.9 mph SW14.3 kmh SW 8.9 mph14.3 kmh 29.40 in995.6 mb - 0.00 in0.0 mm 0.04 in1.0 mm
05:17 AM 31.3°F-0.4°C 28.2°F-2.1°C 88% 6.9 mph SW11.1 kmh SW 8.9 mph14.3 kmh 29.39 in995.3 mb - 0.00 in0.0 mm 0.03 in0.8 mm
05:12 AM 31.1°F-0.5°C 28.2°F-2.1°C 89% 6.0 mph SW9.7 kmh SW 4.9 mph7.9 kmh 29.39 in995.3 mb - 0.00 in0.0 mm 0.03 in0.8 mm
05:07 AM 30.9°F-0.6°C 28.4°F-2.0°C 90% 6.0 mph SW9.7 kmh SW 6.0 mph9.7 kmh 29.39 in995.3 mb - 0.00 in0.0 mm 0.03 in0.8 mm
05:02 AM 30.9°F-0.6°C 28.4°F-2.0°C 90% 6.9 mph WSW11.1 kmh WSW 8.1 mph13.0 kmh 29.40 in995.6 mb - 0.00 in0.0 mm 0.03 in0.8 mm
04:57 AM 30.7°F-0.7°C 28.4°F-2.0°C 91% 6.0 mph WSW9.7 kmh WSW 10.1 mph16.3 kmh 29.41 in995.9 mb - 0.00 in0.0 mm 0.03 in0.8 mm
04:52 AM 30.6°F-0.8°C 28.2°F-2.1°C 91% 6.0 mph SW9.7 kmh SW 2.9 mph4.7 kmh 29.41 in995.9 mb - 0.00 in0.0 mm 0.03 in0.8 mm
04:47 AM 30.4°F-0.9°C 28.4°F-2.0°C 92% 6.9 mph WSW11.1 kmh WSW 8.1 mph13.0 kmh 29.40 in995.6 mb - 0.00 in0.0 mm 0.03 in0.8 mm
04:42 AM 30.4°F-0.9°C 28.4°F-2.0°C 92% 6.9 mph SSW11.1 kmh SSW 6.0 mph9.7 kmh 29.40 in995.6 mb - 0.00 in0.0 mm 0.03 in0.8 mm
04:37 AM 30.0°F-1.1°C 28.2°F-2.1°C 93% 8.1 mph SW13.0 kmh SW 4.9 mph7.9 kmh 29.40 in995.6 mb - 0.00 in0.0 mm 0.03 in0.8 mm
04:32 AM 29.8°F-1.2°C 28.0°F-2.2°C 93% 8.1 mph S13.0 kmh S 10.1 mph16.3 kmh 29.41 in995.9 mb - 0.00 in0.0 mm 0.03 in0.8 mm
04:27 AM 29.8°F-1.2°C 28.0°F-2.2°C 93% 8.1 mph SW13.0 kmh SW 6.0 mph9.7 kmh 29.43 in996.6 mb - 0.03 in0.8 mm 0.03 in0.8 mm
04:22 AM 29.7°F-1.3°C 27.9°F-2.3°C 93% 8.1 mph SSW13.0 kmh SSW 6.0 mph9.7 kmh 29.44 in997.0 mb - 0.06 in1.5 mm 0.03 in0.8 mm
04:17 AM 29.7°F-1.3°C 27.9°F-2.3°C 93% 8.1 mph SW13.0 kmh SW 6.9 mph11.1 kmh 29.44 in997.0 mb - 0.06 in1.5 mm 0.02 in0.5 mm
04:12 AM 29.7°F-1.3°C 27.9°F-2.3°C 93% 8.1 mph SW13.0 kmh SW 6.0 mph9.7 kmh 29.45 in997.3 mb - 0.06 in1.5 mm 0.02 in0.5 mm
04:07 AM 29.5°F-1.4°C 27.7°F-2.4°C 93% 8.1 mph SW13.0 kmh SW 6.0 mph9.7 kmh 29.47 in998.0 mb - 0.06 in1.5 mm 0.02 in0.5 mm
04:02 AM 29.5°F-1.4°C 27.7°F-2.4°C 93% 8.9 mph SW14.3 kmh SW 6.9 mph11.1 kmh 29.48 in998.3 mb - 0.03 in0.8 mm 0.02 in0.5 mm
03:57 AM 29.5°F-1.4°C 27.5°F-2.5°C 92% 8.1 mph SW13.0 kmh SW 6.0 mph9.7 kmh 29.47 in998.0 mb - 0.03 in0.8 mm 0.01 in0.3 mm
03:52 AM 29.3°F-1.5°C 27.3°F-2.6°C 92% 6.0 mph WSW9.7 kmh WSW 8.9 mph14.3 kmh 29.47 in998.0 mb - 0.00 in0.0 mm 0.01 in0.3 mm
03:47 AM 29.5°F-1.4°C 27.1°F-2.7°C 91% 6.9 mph SW11.1 kmh SW 4.0 mph6.4 kmh 29.46 in997.6 mb - 0.00 in0.0 mm 0.01 in0.3 mm
03:42 AM 29.5°F-1.4°C 27.1°F-2.7°C 91% 8.1 mph WSW13.0 kmh WSW 4.0 mph6.4 kmh 29.47 in998.0 mb - 0.00 in0.0 mm 0.00 in0.0 mm
03:37 AM 29.5°F-1.4°C 27.0°F-2.8°C 90% 8.1 mph SW13.0 kmh SW 4.9 mph7.9 kmh 29.46 in997.6 mb - 0.00 in0.0 mm 0.00 in0.0 mm
03:32 AM 29.7°F-1.3°C 26.6°F-3.0°C 88% 6.9 mph SW11.1 kmh SW 4.9 mph7.9 kmh 29.46 in997.6 mb - 0.00 in0.0 mm 0.00 in0.0 mm
03:27 AM 29.8°F-1.2°C 26.4°F-3.1°C 87% 6.0 mph WSW9.7 kmh WSW 14.1 mph22.7 kmh 29.47 in998.0 mb - 0.00 in0.0 mm 0.00 in0.0 mm
03:22 AM 29.8°F-1.2°C 25.9°F-3.4°C 85% 4.9 mph SW7.9 kmh SW 6.9 mph11.1 kmh 29.49 in998.6 mb - 0.00 in0.0 mm 0.00 in0.0 mm
03:17 AM 29.8°F-1.2°C 25.9°F-3.4°C 85% 4.0 mph SW6.4 kmh SW 6.0 mph9.7 kmh 29.49 in998.6 mb - 0.00 in0.0 mm 0.00 in0.0 mm
03:12 AM 29.8°F-1.2°C 25.9°F-3.4°C 85% 4.0 mph SW6.4 kmh SW 2.0 mph3.2 kmh 29.49 in998.6 mb - 0.00 in0.0 mm 0.00 in0.0 mm
03:07 AM 29.8°F-1.2°C 25.9°F-3.4°C 85% 4.9 mph SW7.9 kmh SW 2.0 mph3.2 kmh 29.50 in999.0 mb - 0.00 in0.0 mm 0.00 in0.0 mm
03:02 AM 29.7°F-1.3°C 25.7°F-3.5°C 85% 4.0 mph SW6.4 kmh SW 2.9 mph4.7 kmh 29.51 in999.3 mb - 0.00 in0.0 mm 0.00 in0.0 mm
02:57 AM 29.7°F-1.3°C 25.7°F-3.5°C 85% 4.0 mph SW6.4 kmh SW 6.9 mph11.1 kmh 29.52 in999.7 mb - 0.00 in0.0 mm 0.00 in0.0 mm
02:52 AM 29.7°F-1.3°C 25.7°F-3.5°C 85% 4.0 mph SW6.4 kmh SW 0.9 mph1.4 kmh 29.53 in1000.0 mb - 0.00 in0.0 mm 0.00 in0.0 mm
02:47 AM 29.7°F-1.3°C 25.7°F-3.5°C 85% 4.9 mph SW7.9 kmh SW 6.9 mph11.1 kmh 29.54 in1000.3 mb - 0.00 in0.0 mm 0.00 in0.0 mm
02:42 AM 29.7°F-1.3°C 25.7°F-3.5°C 85% 4.0 mph WSW6.4 kmh WSW 2.0 mph3.2 kmh 29.54 in1000.3 mb - 0.00 in0.0 mm 0.00 in0.0 mm
02:37 AM 29.7°F-1.3°C 25.7°F-3.5°C 85% 4.9 mph WSW7.9 kmh WSW 4.0 mph6.4 kmh 29.54 in1000.3 mb - 0.00 in0.0 mm 0.00 in0.0 mm
02:32 AM 29.7°F-1.3°C 25.7°F-3.5°C 85% 6.0 mph SSW9.7 kmh SSW 2.0 mph3.2 kmh 29.55 in1000.7 mb - 0.00 in0.0 mm 0.00 in0.0 mm
02:27 AM 29.7°F-1.3°C 25.7°F-3.5°C 85% 6.0 mph S9.7 kmh S 4.9 mph7.9 kmh 29.54 in1000.3 mb - 0.00 in0.0 mm 0.00 in0.0 mm
02:22 AM 29.5°F-1.4°C 25.9°F-3.4°C 86% 4.9 mph SW7.9 kmh SW 10.1 mph16.3 kmh 29.54 in1000.3 mb - 0.00 in0.0 mm 0.00 in0.0 mm
02:17 AM 29.5°F-1.4°C 25.9°F-3.4°C 86% 4.9 mph SW7.9 kmh SW 6.9 mph11.1 kmh 29.55 in1000.7 mb - 0.00 in0.0 mm 0.00 in0.0 mm
02:12 AM 29.5°F-1.4°C 25.9°F-3.4°C 86% 6.9 mph SSW11.1 kmh SSW 4.9 mph7.9 kmh 29.55 in1000.7 mb - 0.00 in0.0 mm 0.00 in0.0 mm
02:07 AM 29.5°F-1.4°C 25.9°F-3.4°C 86% 6.9 mph SW11.1 kmh SW 2.9 mph4.7 kmh 29.55 in1000.7 mb - 0.00 in0.0 mm 0.00 in0.0 mm
02:02 AM 29.5°F-1.4°C 25.9°F-3.4°C 86% 6.9 mph SW11.1 kmh SW 6.0 mph9.7 kmh 29.55 in1000.7 mb - 0.00 in0.0 mm 0.00 in0.0 mm
01:57 AM 29.3°F-1.5°C 25.9°F-3.4°C 87% 6.9 mph SW11.1 kmh SW 4.9 mph7.9 kmh 29.55 in1000.7 mb - 0.00 in0.0 mm 0.00 in0.0 mm
01:52 AM 29.1°F-1.6°C 25.7°F-3.5°C 87% 6.0 mph SW9.7 kmh SW 8.9 mph14.3 kmh 29.55 in1000.7 mb - 0.00 in0.0 mm 0.00 in0.0 mm
01:47 AM 29.1°F-1.6°C 25.7°F-3.5°C 87% 6.0 mph SW9.7 kmh SW 4.0 mph6.4 kmh 29.55 in1000.7 mb - 0.00 in0.0 mm 0.00 in0.0 mm
01:42 AM 29.1°F-1.6°C 25.7°F-3.5°C 87% 4.9 mph SW7.9 kmh SW 6.0 mph9.7 kmh 29.56 in1001.0 mb - 0.00 in0.0 mm 0.00 in0.0 mm
01:37 AM 29.1°F-1.6°C 26.1°F-3.3°C 88% 6.0 mph WSW9.7 kmh WSW 8.1 mph13.0 kmh 29.57 in1001.4 mb - 0.00 in0.0 mm 0.00 in0.0 mm
01:32 AM 29.1°F-1.6°C 26.1°F-3.3°C 88% 6.9 mph SW11.1 kmh SW 4.9 mph7.9 kmh 29.57 in1001.4 mb - 0.00 in0.0 mm 0.00 in0.0 mm
01:27 AM 28.9°F-1.7°C 25.9°F-3.4°C 88% 6.9 mph SW11.1 kmh SW 8.1 mph13.0 kmh 29.56 in1001.0 mb - 0.00 in0.0 mm 0.00 in0.0 mm
01:22 AM 28.9°F-1.7°C 26.1°F-3.3°C 89% 6.9 mph SSW11.1 kmh SSW 8.9 mph14.3 kmh 29.57 in1001.4 mb - 0.00 in0.0 mm 0.00 in0.0 mm
01:17 AM 28.9°F-1.7°C 26.1°F-3.3°C 89% 8.1 mph WSW13.0 kmh WSW 4.9 mph7.9 kmh 29.57 in1001.4 mb - 0.00 in0.0 mm 0.00 in0.0 mm
01:12 AM 28.8°F-1.8°C 25.9°F-3.4°C 89% 8.1 mph SW13.0 kmh SW 4.9 mph7.9 kmh 29.57 in1001.4 mb - 0.00 in0.0 mm 0.00 in0.0 mm
01:07 AM 28.8°F-1.8°C 25.9°F-3.4°C 89% 6.9 mph SSW11.1 kmh SSW 12.1 mph19.5 kmh 29.56 in1001.0 mb - 0.00 in0.0 mm 0.00 in0.0 mm
01:02 AM 28.9°F-1.7°C 26.1°F-3.3°C 89% 6.9 mph SW11.1 kmh SW 4.0 mph6.4 kmh 29.57 in1001.4 mb - 0.00 in0.0 mm 0.00 in0.0 mm
12:57 AM 28.9°F-1.7°C 26.1°F-3.3°C 89% 6.9 mph SW11.1 kmh SW 13.0 mph20.9 kmh 29.57 in1001.4 mb - 0.00 in0.0 mm 0.00 in0.0 mm
12:52 AM 29.1°F-1.6°C 26.2°F-3.2°C 89% 6.0 mph SSW9.7 kmh SSW 6.9 mph11.1 kmh 29.58 in1001.7 mb - 0.00 in0.0 mm 0.00 in0.0 mm
12:47 AM 29.1°F-1.6°C 26.2°F-3.2°C 89% 4.0 mph SW6.4 kmh SW 2.0 mph3.2 kmh 29.59 in1002.0 mb - 0.00 in0.0 mm 0.00 in0.0 mm
12:42 AM 29.1°F-1.6°C 26.1°F-3.3°C 88% 4.9 mph SW7.9 kmh SW 4.0 mph6.4 kmh 29.59 in1002.0 mb - 0.00 in0.0 mm 0.00 in0.0 mm
12:37 AM 29.1°F-1.6°C 26.2°F-3.2°C 89% 6.0 mph SSW9.7 kmh SSW 4.0 mph6.4 kmh 29.60 in1002.4 mb - 0.00 in0.0 mm 0.00 in0.0 mm
12:32 AM 29.3°F-1.5°C 26.4°F-3.1°C 89% 6.9 mph SW11.1 kmh SW 6.0 mph9.7 kmh 29.60 in1002.4 mb - 0.00 in0.0 mm 0.00 in0.0 mm
12:27 AM 29.1°F-1.6°C 26.2°F-3.2°C 89% 6.9 mph SW11.1 kmh SW 4.0 mph6.4 kmh 29.60 in1002.4 mb - 0.00 in0.0 mm 0.00 in0.0 mm
12:22 AM 29.1°F-1.6°C 26.2°F-3.2°C 89% 6.9 mph SW11.1 kmh SW 11.0 mph17.7 kmh 29.61 in1002.7 mb - 0.00 in0.0 mm 0.00 in0.0 mm
12:17 AM 29.1°F-1.6°C 26.2°F-3.2°C 89% 6.9 mph SW11.1 kmh SW 6.9 mph11.1 kmh 29.61 in1002.7 mb - 0.00 in0.0 mm 0.00 in0.0 mm
12:12 AM 29.1°F-1.6°C 26.2°F-3.2°C 89% 8.1 mph SW13.0 kmh SW 6.9 mph11.1 kmh 29.61 in1002.7 mb - 0.00 in0.0 mm 0.00 in0.0 mm
12:07 AM 29.1°F-1.6°C 26.6°F-3.0°C 90% 8.1 mph SW13.0 kmh SW 11.0 mph17.7 kmh 29.61 in1002.7 mb - 0.00 in0.0 mm 0.00 in0.0 mm
12:02 AM 28.9°F-1.7°C 26.4°F-3.1°C 90% 8.1 mph SW13.0 kmh SW 10.1 mph16.3 kmh 29.62 in1003.0 mb - 0.00 in0.0 mm 0.00 in0.0 mm